Time;durP1;ratioP1;P1;durP2;ratioP2;P2;SDS_P1;SDS_P2;PMS_P1;PMS_P2;Temp;Humidity;BMP_temperature;BMP_pressure;BME280_temperature;BME280_humidity;BME280_pressure;Samples;Min_cycle;Max_cycle;Signal;HPM_P1;HPM_P2
2021/05/20 00:00:22;;;;;;;11.13;10.13;;;12.30;88.60;;;;;;5095536;28;20530;-71
2021/05/20 00:02:49;;;;;;;10.70;9.80;;;12.30;89.10;;;;;;5095979;28;20440;-71
2021/05/20 00:05:16;;;;;;;9.53;8.80;;;12.30;89.30;;;;;;5095542;28;20981;-71
2021/05/20 00:07:43;;;;;;;11.07;10.07;;;12.30;89.70;;;;;;5095947;28;20440;-71
2021/05/20 00:10:11;;;;;;;11.13;10.23;;;12.20;90.00;;;;;;5095456;28;20483;-71
2021/05/20 00:12:37;;;;;;;11.50;10.20;;;12.20;90.40;;;;;;5095727;28;20942;-71
2021/05/20 00:15:05;;;;;;;10.73;9.73;;;12.20;90.40;;;;;;5095450;28;20470;-71
2021/05/20 00:17:32;;;;;;;10.80;9.80;;;12.20;90.70;;;;;;5095707;28;20519;-71
2021/05/20 00:19:59;;;;;;;12.40;11.40;;;12.20;90.80;;;;;;5095690;28;20444;-71
2021/05/20 00:22:25;;;;;;;10.90;9.90;;;12.20;90.90;;;;;;5095651;28;20459;-71
2021/05/20 00:24:52;;;;;;;12.47;11.30;;;12.20;91.20;;;;;;5095540;28;20470;-71
2021/05/20 00:27:18;;;;;;;12.50;11.33;;;12.20;91.20;;;;;;5095830;28;20473;-71
2021/05/20 00:29:44;;;;;;;11.97;10.83;;;12.10;91.30;;;;;;5095176;28;20450;-71
2021/05/20 00:32:10;;;;;;;11.80;10.73;;;12.00;91.30;;;;;;5095401;28;20452;-71
2021/05/20 00:34:37;;;;;;;14.27;12.97;;;11.90;91.50;;;;;;5095408;28;20804;-71
2021/05/20 00:37:04;;;;;;;12.90;11.80;;;11.90;91.70;;;;;;5095030;28;20448;-71
2021/05/20 00:39:30;;;;;;;12.00;10.80;;;12.00;91.80;;;;;;5095219;28;20994;-71
2021/05/20 00:41:56;;;;;;;13.13;11.93;;;12.00;91.70;;;;;;5095292;28;20435;-71
2021/05/20 00:44:22;;;;;;;12.00;10.97;;;12.10;91.60;;;;;;5095164;28;20463;-71
2021/05/20 00:46:49;;;;;;;12.03;11.03;;;12.10;91.30;;;;;;5095133;28;20466;-71
2021/05/20 00:49:15;;;;;;;12.27;11.07;;;12.00;91.20;;;;;;5094990;28;20460;-71
2021/05/20 00:51:43;;;;;;;13.20;12.10;;;12.00;91.40;;;;;;5095023;28;20484;-71
2021/05/20 00:54:11;;;;;;;14.50;13.10;;;11.90;91.70;;;;;;5094923;28;20551;-71
2021/05/20 00:56:40;;;;;;;13.97;12.67;;;11.90;91.80;;;;;;5094688;28;20451;-71
2021/05/20 00:59:06;;;;;;;12.73;11.63;;;11.90;92.10;;;;;;5094884;28;20814;-71
2021/05/20 01:01:33;;;;;;;13.30;12.20;;;11.90;92.20;;;;;;5094923;28;20439;-71
2021/05/20 01:04:00;;;;;;;13.73;12.57;;;11.90;92.40;;;;;;5094786;28;20822;-71
2021/05/20 01:06:26;;;;;;;14.30;13.00;;;11.90;92.30;;;;;;5094749;28;20803;-71
2021/05/20 01:08:57;;;;;;;13.37;12.17;;;11.90;92.40;;;;;;5094806;28;20440;-71
2021/05/20 01:11:24;;;;;;;13.00;11.80;;;11.90;92.50;;;;;;5094401;28;20471;-71
2021/05/20 01:13:50;;;;;;;11.80;10.80;;;11.90;92.40;;;;;;5094224;28;20471;-71
2021/05/20 01:16:17;;;;;;;13.00;11.80;;;11.90;92.20;;;;;;5094522;28;20530;-71
2021/05/20 01:18:43;;;;;;;12.40;11.20;;;11.90;92.20;;;;;;5094622;28;20455;-71
2021/05/20 01:21:10;;;;;;;11.93;10.83;;;11.90;92.20;;;;;;5094496;28;20446;-71
2021/05/20 01:23:36;;;;;;;13.90;11.50;;;11.80;92.20;;;;;;5094589;28;20805;-71
2021/05/20 01:26:04;;;;;;;12.37;11.27;;;11.80;92.20;;;;;;5094392;28;20448;-71
2021/05/20 01:28:33;;;;;;;14.23;12.20;;;11.80;92.20;;;;;;5094022;28;20455;-71
2021/05/20 01:31:01;;;;;;;13.10;12.00;;;11.70;92.00;;;;;;5094236;28;20479;-71
2021/05/20 01:33:28;;;;;;;13.47;12.27;;;11.60;92.10;;;;;;5094224;28;20454;-71
2021/05/20 01:35:55;;;;;;;14.60;13.27;;;11.60;92.20;;;;;;5094223;28;20448;-71
2021/05/20 01:38:42;;;;;;;14.67;13.40;;;11.60;92.20;;;;;;5094139;28;20546;-71
2021/05/20 01:41:10;;;;;;;14.53;13.17;;;11.60;92.20;;;;;;5094251;28;20499;-71
2021/05/20 01:43:38;;;;;;;14.27;12.97;;;11.60;92.20;;;;;;5094086;28;20446;-71
2021/05/20 01:46:05;;;;;;;14.17;12.93;;;11.60;92.20;;;;;;5094069;28;20452;-71
2021/05/20 01:48:35;;;;;;;14.87;13.57;;;11.70;92.10;;;;;;5094044;28;20455;-71
2021/05/20 01:51:04;;;;;;;13.63;12.33;;;11.70;91.80;;;;;;5093899;28;20475;-71
2021/05/20 01:53:32;;;;;;;14.83;13.53;;;11.70;91.80;;;;;;5093603;28;20860;-71
2021/05/20 01:55:58;;;;;;;14.40;13.10;;;11.60;91.70;;;;;;5093939;28;20451;-71
2021/05/20 01:58:24;;;;;;;14.33;13.00;;;11.60;91.70;;;;;;5093831;28;20473;-71
2021/05/20 02:00:51;;;;;;;14.93;13.27;;;11.60;91.60;;;;;;5093827;28;20451;-71
2021/05/20 02:03:17;;;;;;;15.37;13.87;;;11.60;91.60;;;;;;5093827;28;20452;-71
2021/05/20 02:05:44;;;;;;;15.53;14.03;;;11.50;91.80;;;;;;5093797;28;20520;-71
2021/05/20 02:08:10;;;;;;;16.37;14.67;;;11.40;92.00;;;;;;5093761;28;20812;-71
2021/05/20 02:10:38;;;;;;;17.37;15.67;;;11.50;92.50;;;;;;5093699;28;20888;-71
2021/05/20 02:13:04;;;;;;;16.37;14.87;;;11.50;92.10;;;;;;5093983;28;20447;-71
2021/05/20 02:15:30;;;;;;;16.70;15.10;;;11.50;92.00;;;;;;5093297;28;21042;-71
2021/05/20 02:17:57;;;;;;;17.50;15.80;;;11.50;92.00;;;;;;5093773;28;20447;-71
2021/05/20 02:20:23;;;;;;;17.90;16.20;;;11.50;91.90;;;;;;5093940;28;20450;-71
2021/05/20 02:22:50;;;;;;;17.40;15.60;;;11.60;91.90;;;;;;5094507;28;20448;-71
2021/05/20 02:25:16;;;;;;;18.70;17.00;;;11.60;91.90;;;;;;5100402;28;20468;-71
2021/05/20 02:27:43;;;;;;;19.03;17.07;;;11.60;92.00;;;;;;5100946;28;20467;-71
2021/05/20 02:30:12;;;;;;;19.87;17.93;;;11.70;91.90;;;;;;5100769;28;20476;-71
2021/05/20 02:32:38;;;;;;;18.30;16.60;;;11.80;91.70;;;;;;5100876;28;20443;-71
2021/05/20 02:35:06;;;;;;;18.60;16.90;;;11.70;91.50;;;;;;5100437;28;20463;-71
2021/05/20 02:37:32;;;;;;;18.43;16.73;;;11.80;91.30;;;;;;5100824;28;20443;-72
2021/05/20 02:39:59;;;;;;;20.33;18.30;;;11.80;91.20;;;;;;5100281;28;20500;-71
2021/05/20 02:42:25;;;;;;;19.40;17.60;;;11.80;91.20;;;;;;5100742;28;20497;-71
2021/05/20 02:44:52;;;;;;;18.57;16.77;;;11.80;91.10;;;;;;5101309;28;20520;-71
2021/05/20 02:47:18;;;;;;;18.50;16.70;;;11.90;91.10;;;;;;5100851;28;20443;-71
2021/05/20 02:49:44;;;;;;;19.57;17.50;;;11.90;90.90;;;;;;5101129;28;20443;-71
2021/05/20 02:52:11;;;;;;;19.10;17.07;;;11.90;90.90;;;;;;5100905;28;20447;-71
2021/05/20 02:54:38;;;;;;;20.90;18.83;;;11.90;90.70;;;;;;5100833;28;20824;-71
2021/05/20 02:57:05;;;;;;;18.63;16.83;;;11.90;90.70;;;;;;5100132;28;20509;-71
2021/05/20 02:59:32;;;;;;;19.60;17.50;;;12.00;90.60;;;;;;5099955;28;20451;-71
2021/05/20 03:02:04;;;;;;;21.07;18.87;;;12.00;90.60;;;;;;5099998;28;20455;-71
2021/05/20 03:04:30;;;;;;;17.70;15.90;;;12.00;90.60;;;;;;5100028;28;20470;-71
2021/05/20 03:06:57;;;;;;;20.23;18.30;;;12.00;90.40;;;;;;5099614;28;20960;-71
2021/05/20 03:09:24;;;;;;;22.30;19.33;;;12.10;90.30;;;;;;5100074;28;20443;-71
2021/05/20 03:11:51;;;;;;;20.90;18.70;;;12.10;90.20;;;;;;5099850;28;20488;-71
2021/05/20 03:14:17;;;;;;;20.93;18.83;;;12.00;90.00;;;;;;5099856;28;20464;-71
2021/05/20 03:16:43;;;;;;;20.27;18.23;;;12.00;90.10;;;;;;5099530;28;20467;-71
2021/05/20 03:19:10;;;;;;;21.37;19.17;;;12.00;90.10;;;;;;5099943;28;20491;-71
2021/05/20 03:21:37;;;;;;;19.87;17.87;;;12.00;90.00;;;;;;5099818;28;21028;-71
2021/05/20 03:24:03;;;;;;;19.20;17.20;;;12.00;89.90;;;;;;5099792;28;20529;-71
2021/05/20 03:26:30;;;;;;;21.53;19.33;;;11.90;89.80;;;;;;5099911;28;20485;-71
2021/05/20 03:28:56;;;;;;;19.17;17.10;;;11.90;90.00;;;;;;5100095;28;20443;-71
2021/05/20 03:31:22;;;;;;;21.83;19.40;;;11.80;90.00;;;;;;5099730;28;20479;-71
2021/05/20 03:33:49;;;;;;;22.10;19.80;;;11.80;90.20;;;;;;5099406;28;20838;-71
2021/05/20 03:36:16;;;;;;;21.70;19.50;;;11.80;90.30;;;;;;5096283;28;20443;-71
2021/05/20 03:38:42;;;;;;;22.93;20.37;;;11.80;90.40;;;;;;5096533;28;20455;-71
2021/05/20 03:41:09;;;;;;;24.77;22.10;;;11.80;90.50;;;;;;5096634;28;20443;-71
2021/05/20 03:43:36;;;;;;;24.27;21.77;;;11.70;90.50;;;;;;5096412;28;20448;-71
2021/05/20 03:46:03;;;;;;;35.00;27.73;;;11.60;90.80;;;;;;5096406;28;20448;-71
2021/05/20 03:48:29;;;;;;;37.57;28.47;;;11.50;91.10;;;;;;5096782;28;20447;-71
2021/05/20 03:50:56;;;;;;;39.87;29.53;;;11.50;91.60;;;;;;5096436;28;20463;-71
2021/05/20 03:53:25;;;;;;;44.20;31.73;;;11.40;91.80;;;;;;5096306;28;20467;-71
2021/05/20 03:55:51;;;;;;;42.17;32.80;;;11.30;92.10;;;;;;5096624;28;20456;-71
2021/05/20 03:58:17;;;;;;;44.47;32.87;;;11.30;92.40;;;;;;5096192;28;20459;-71
2021/05/20 04:00:43;;;;;;;44.60;35.23;;;11.10;92.70;;;;;;5096652;28;20467;-71
2021/05/20 04:03:09;;;;;;;53.63;39.23;;;11.00;93.30;;;;;;5096158;28;20451;-71
2021/05/20 04:05:36;;;;;;;52.50;36.53;;;10.90;93.70;;;;;;5096072;28;20471;-71
2021/05/20 04:08:03;;;;;;;48.90;38.43;;;10.90;93.90;;;;;;5096266;28;20448;-71
2021/05/20 04:10:30;;;;;;;53.93;38.97;;;10.90;94.00;;;;;;5095577;28;20472;-71
2021/05/20 04:12:56;;;;;;;55.40;38.63;;;11.00;94.10;;;;;;5095513;28;20953;-71
2021/05/20 04:15:22;;;;;;;57.90;41.60;;;11.00;94.10;;;;;;5095452;28;21061;-71
2021/05/20 04:17:48;;;;;;;55.33;41.70;;;10.90;94.10;;;;;;5095485;28;20972;-71
2021/05/20 04:20:16;;;;;;;54.30;42.00;;;10.90;94.20;;;;;;5095812;28;20874;-72
2021/05/20 04:22:42;;;;;;;59.57;42.20;;;10.90;94.30;;;;;;5095845;28;20546;-70
2021/05/20 04:25:09;;;;;;;58.77;42.47;;;10.90;94.40;;;;;;5095589;28;20510;-70
2021/05/20 04:27:37;;;;;;;65.03;44.73;;;11.00;94.50;;;;;;5095405;28;20484;-71
2021/05/20 04:30:03;;;;;;;69.43;44.50;;;11.00;94.40;;;;;;5095413;28;20448;-71
2021/05/20 04:32:30;;;;;;;63.70;41.20;;;10.90;94.50;;;;;;5095429;28;20435;-71
2021/05/20 04:34:56;;;;;;;66.40;42.73;;;10.90;94.70;;;;;;5095216;28;20488;-71
2021/05/20 04:37:22;;;;;;;72.78;52.00;;;10.90;94.80;;;;;;5094353;28;20419;-71
2021/05/20 04:39:48;;;;;;;74.20;47.17;;;10.90;94.80;;;;;;5094992;28;20215;-71
2021/05/20 04:42:15;;;;;;;67.60;43.00;;;10.90;94.80;;;;;;5095174;28;21002;-71
2021/05/20 04:44:43;;;;;;;72.00;44.63;;;10.80;94.90;;;;;;5094804;28;20957;-71
2021/05/20 04:47:09;;;;;;;66.30;42.97;;;10.80;95.00;;;;;;5094040;28;20515;-71
2021/05/20 04:49:35;;;;;;;69.57;45.30;;;10.80;95.00;;;;;;5095055;28;20451;-71
2021/05/20 04:52:01;;;;;;;67.33;43.47;;;10.90;95.10;;;;;;5094971;28;20841;-71
2021/05/20 04:54:27;;;;;;;65.23;43.77;;;10.90;95.10;;;;;;5094724;28;20452;-71
2021/05/20 04:56:54;;;;;;;65.40;41.87;;;11.00;95.00;;;;;;5094997;28;20448;-71
2021/05/20 04:59:20;;;;;;;65.40;43.13;;;11.00;94.90;;;;;;5094951;28;20440;-70
2021/05/20 05:01:47;;;;;;;70.30;43.53;;;11.10;94.90;;;;;;5094580;28;20443;-71
2021/05/20 05:04:13;;;;;;;59.73;43.20;;;11.10;94.80;;;;;;5094496;28;21008;-71
2021/05/20 05:06:40;;;;;;;60.63;42.80;;;11.30;94.70;;;;;;5094530;28;20951;-71
2021/05/20 05:09:06;;;;;;;59.60;38.77;;;11.30;94.40;;;;;;5094747;28;20435;-71
2021/05/20 05:11:32;;;;;;;58.60;40.90;;;11.30;94.20;;;;;;5094586;28;20483;-72
2021/05/20 05:13:59;;;;;;;57.87;38.90;;;11.30;94.30;;;;;;5094314;28;21000;-71
2021/05/20 05:16:25;;;;;;;57.97;41.77;;;11.20;94.30;;;;;;5094702;28;20953;-71
2021/05/20 05:18:52;;;;;;;58.33;40.40;;;11.30;94.20;;;;;;5094658;28;20462;-71
2021/05/20 05:21:18;;;;;;;60.87;41.80;;;11.30;94.30;;;;;;5094774;28;20428;-71
2021/05/20 05:23:44;;;;;;;60.13;39.40;;;11.40;94.30;;;;;;5094816;28;20481;-71
2021/05/20 05:26:11;;;;;;;64.10;43.97;;;11.40;94.20;;;;;;5094919;28;20444;-71
2021/05/20 05:28:37;;;;;;;63.73;40.83;;;11.50;94.10;;;;;;5094256;28;20440;-71
2021/05/20 05:31:03;;;;;;;65.70;42.30;;;11.50;94.10;;;;;;5094209;28;20472;-71
2021/05/20 05:33:29;;;;;;;62.50;40.00;;;11.60;94.30;;;;;;5094005;28;20490;-69
2021/05/20 05:35:56;;;;;;;52.87;36.27;;;11.50;93.80;;;;;;5094193;28;20455;-70
2021/05/20 05:38:23;;;;;;;57.13;37.17;;;11.50;93.80;;;;;;5094520;28;20501;-69
2021/05/20 05:40:49;;;;;;;52.03;36.40;;;11.60;93.90;;;;;;5094170;28;20494;-70
2021/05/20 05:43:16;;;;;;;64.00;39.60;;;11.70;93.70;;;;;;5093855;28;20964;-70
2021/05/20 05:45:42;;;;;;;61.27;37.60;;;11.60;93.50;;;;;;5094255;28;20884;-70
2021/05/20 05:48:11;;;;;;;69.40;40.50;;;11.60;93.70;;;;;;5094201;28;20439;-70
2021/05/20 05:50:38;;;;;;;70.60;40.53;;;11.70;93.60;;;;;;5093960;28;20989;-70
2021/05/20 05:53:07;;;;;;;64.20;41.03;;;11.70;93.70;;;;;;5094498;28;20457;-70
2021/05/20 05:55:33;;;;;;;57.17;37.03;;;11.80;93.60;;;;;;5094732;28;20460;-70
2021/05/20 05:57:59;;;;;;;58.70;36.70;;;11.80;93.10;;;;;;5095060;28;20497;-70
2021/05/20 06:00:26;;;;;;;54.67;36.20;;;11.90;93.00;;;;;;5094405;28;20880;-71
2021/05/20 06:02:52;;;;;;;57.00;37.20;;;11.90;92.80;;;;;;5094893;28;21017;-69
2021/05/20 06:05:19;;;;;;;60.20;36.97;;;12.00;93.00;;;;;;5093986;28;20467;-70
2021/05/20 06:07:45;;;;;;;55.80;38.30;;;12.00;93.00;;;;;;5093970;28;20475;-70
2021/05/20 06:10:13;;;;;;;60.20;39.13;;;12.10;93.00;;;;;;5093753;28;20454;-69
2021/05/20 06:12:40;;;;;;;49.57;36.43;;;12.20;93.00;;;;;;5093693;28;20447;-70
2021/05/20 06:15:07;;;;;;;48.30;36.27;;;12.30;92.60;;;;;;5093401;28;20470;-70
2021/05/20 06:17:36;;;;;;;54.50;38.33;;;12.40;92.50;;;;;;5094046;28;20801;-70
2021/05/20 06:20:02;;;;;;;47.80;35.13;;;12.40;92.50;;;;;;5094218;28;20439;-71
2021/05/20 06:22:29;;;;;;;49.97;36.33;;;12.50;91.90;;;;;;5093788;28;20448;-70
2021/05/20 06:24:55;;;;;;;48.80;35.50;;;12.40;92.00;;;;;;5094625;28;20460;-71
2021/05/20 06:27:26;;;;;;;51.63;36.13;;;12.40;92.30;;;;;;5093752;28;20452;-71
2021/05/20 06:29:52;;;;;;;48.87;38.53;;;12.40;92.80;;;;;;5094022;28;20489;-71
2021/05/20 06:32:18;;;;;;;48.93;35.60;;;12.50;92.70;;;;;;5093494;28;20479;-71
2021/05/20 06:34:44;;;;;;;51.90;36.87;;;12.50;92.70;;;;;;5093161;28;20471;-70
2021/05/20 06:37:11;;;;;;;44.93;34.47;;;12.70;92.80;;;;;;5093461;28;20800;-70
2021/05/20 06:39:37;;;;;;;49.20;35.20;;;12.70;92.20;;;;;;5093222;28;20428;-70
2021/05/20 06:42:04;;;;;;;47.57;34.70;;;12.80;92.00;;;;;;5093709;28;20424;-70
2021/05/20 06:44:31;;;;;;;47.70;34.50;;;12.90;92.00;;;;;;5093410;28;20471;-70
2021/05/20 06:46:58;;;;;;;42.17;33.00;;;13.00;91.70;;;;;;5092975;28;20509;-70
2021/05/20 06:49:24;;;;;;;46.27;35.83;;;13.10;91.60;;;;;;5093363;28;20534;-70
2021/05/20 06:51:50;;;;;;;45.30;33.80;;;13.20;91.30;;;;;;5093548;28;20473;-70
2021/05/20 06:54:16;;;;;;;41.23;32.87;;;13.30;91.30;;;;;;5093325;28;20980;-70
2021/05/20 06:56:48;;;;;;;37.07;31.40;;;13.40;90.70;;;;;;5093123;28;20893;-70
2021/05/20 07:01:59;;;;;;;32.83;25.50;;;13.40;90.30;;;;;;5093332;28;20404;-71
2021/05/20 07:04:25;;;;;;;37.13;27.17;;;13.20;89.50;;;;;;5093088;28;21001;-70
2021/05/20 07:06:51;;;;;;;30.10;26.03;;;13.20;89.80;;;;;;5093181;28;20444;-70
2021/05/20 07:09:18;;;;;;;33.33;26.20;;;13.10;90.00;;;;;;5093186;28;20436;-70
2021/05/20 07:11:44;;;;;;;29.93;23.73;;;13.30;90.40;;;;;;5096329;28;20479;-70
2021/05/20 07:14:11;;;;;;;28.53;22.90;;;13.40;90.30;;;;;;5096944;28;20921;-70
2021/05/20 07:16:37;;;;;;;26.67;23.87;;;13.50;89.40;;;;;;5096765;28;20483;-70
2021/05/20 07:19:04;;;;;;;25.03;22.43;;;13.60;89.10;;;;;;5096894;28;20489;-70
2021/05/20 07:21:31;;;;;;;27.47;21.87;;;13.70;87.60;;;;;;5096872;28;20482;-70
2021/05/20 07:23:57;;;;;;;25.57;22.90;;;13.70;86.50;;;;;;5096381;28;21031;-70
2021/05/20 07:26:23;;;;;;;25.20;21.90;;;13.60;86.50;;;;;;5096493;28;20461;-70
2021/05/20 07:28:49;;;;;;;23.33;20.93;;;13.70;86.60;;;;;;5096735;28;20436;-70
2021/05/20 07:31:15;;;;;;;26.07;23.03;;;13.80;85.70;;;;;;5097206;28;20472;-71
2021/05/20 07:33:42;;;;;;;27.47;24.67;;;13.70;85.50;;;;;;5096442;28;20972;-69
2021/05/20 07:36:09;;;;;;;26.57;23.83;;;13.70;86.30;;;;;;5096492;28;20432;-71
2021/05/20 07:38:35;;;;;;;26.53;23.63;;;13.80;86.50;;;;;;5097488;28;20431;-70
2021/05/20 07:41:02;;;;;;;27.87;24.17;;;14.00;85.50;;;;;;5096562;28;20440;-70
2021/05/20 07:43:28;;;;;;;27.70;24.80;;;14.10;86.30;;;;;;5096438;28;20436;-70
2021/05/20 07:45:54;;;;;;;28.03;25.03;;;14.20;85.90;;;;;;5096668;28;20451;-70
2021/05/20 07:48:20;;;;;;;28.70;25.70;;;14.40;84.60;;;;;;5096607;28;20451;-70
2021/05/20 07:50:47;;;;;;;28.90;25.60;;;14.40;84.70;;;;;;5096144;28;20476;-70
2021/05/20 07:53:14;;;;;;;32.83;28.73;;;14.20;84.00;;;;;;5096229;28;20830;-70
2021/05/20 07:55:40;;;;;;;30.87;26.77;;;14.10;83.60;;;;;;5095816;28;20823;-70
2021/05/20 07:58:06;;;;;;;30.07;26.30;;;14.10;84.90;;;;;;5096091;28;20941;-70
2021/05/20 08:00:34;;;;;;;26.67;22.43;;;14.20;84.50;;;;;;5096170;28;20447;-70
2021/05/20 08:03:04;;;;;;;23.13;20.47;;;14.10;83.80;;;;;;5096072;28;20451;-70
2021/05/20 08:05:34;;;;;;;23.13;20.53;;;14.40;84.50;;;;;;5095919;28;20467;-70
2021/05/20 08:08:08;;;;;;;20.53;18.43;;;14.50;83.20;;;;;;5095869;28;20861;-70
2021/05/20 08:10:47;;;;;;;20.47;18.37;;;14.80;81.90;;;;;;5095928;28;20478;-70
2021/05/20 08:13:15;;;;;;;19.00;17.10;;;15.00;80.30;;;;;;5096572;28;20452;-70
2021/05/20 08:15:41;;;;;;;21.50;19.30;;;15.40;78.50;;;;;;5095801;28;20480;-70
2021/05/20 08:18:07;;;;;;;18.60;16.70;;;15.80;79.20;;;;;;5095737;28;20820;-70
2021/05/20 08:20:34;;;;;;;17.27;15.57;;;16.00;75.70;;;;;;5095755;28;20436;-70
2021/05/20 08:23:00;;;;;;;16.00;14.33;;;16.10;75.90;;;;;;5095410;28;20480;-70
2021/05/20 08:25:27;;;;;;;15.60;13.93;;;16.50;75.30;;;;;;5095346;28;20452;-70
2021/05/20 08:27:54;;;;;;;15.17;13.67;;;16.50;71.90;;;;;;5095551;28;20539;-70
2021/05/20 08:30:20;;;;;;;14.90;13.20;;;16.60;73.40;;;;;;5095444;28;20432;-70
2021/05/20 08:32:47;;;;;;;14.17;12.77;;;16.60;71.70;;;;;;5095676;28;20443;-70
2021/05/20 08:35:14;;;;;;;16.73;13.50;;;16.50;69.90;;;;;;5095705;28;20468;-70
2021/05/20 08:37:41;;;;;;;14.00;12.60;;;16.40;70.40;;;;;;5095500;28;20497;-70
2021/05/20 08:40:09;;;;;;;14.30;12.67;;;16.40;71.80;;;;;;5095351;28;20486;-70
2021/05/20 08:42:36;;;;;;;16.63;15.03;;;16.60;71.10;;;;;;5095066;28;21042;-70
2021/05/20 08:45:15;;;;;;;19.17;15.23;;;16.70;69.40;;;;;;5095158;28;20471;-70
2021/05/20 08:47:42;;;;;;;17.90;15.97;;;16.70;68.20;;;;;;5095002;28;20924;-70
2021/05/20 08:50:09;;;;;;;17.60;15.70;;;16.40;69.70;;;;;;5095272;28;20443;-70
2021/05/20 08:52:37;;;;;;;16.83;15.13;;;16.50;70.40;;;;;;5095119;28;20464;-70
2021/05/20 08:55:04;;;;;;;19.67;14.73;;;16.50;69.60;;;;;;5094867;28;20467;-70
2021/05/20 08:57:31;;;;;;;17.27;15.57;;;16.40;69.80;;;;;;5094772;28;20493;-70
2021/05/20 08:59:57;;;;;;;15.90;14.40;;;16.40;69.20;;;;;;5095142;28;20447;-70
2021/05/20 09:02:26;;;;;;;18.20;16.30;;;16.50;69.60;;;;;;5095236;28;20435;-70
2021/05/20 09:05:01;;;;;;;18.93;17.13;;;16.60;69.80;;;;;;5095160;28;20474;-70
2021/05/20 09:07:33;;;;;;;18.67;16.87;;;16.80;68.90;;;;;;5095645;28;20492;-71
2021/05/20 09:10:14;;;;;;;15.63;14.17;;;17.10;69.10;;;;;;5094587;28;20455;-71
2021/05/20 09:12:41;;;;;;;17.83;16.07;;;17.50;67.20;;;;;;5094356;28;20997;-71
2021/05/20 09:15:16;;;;;;;14.47;12.97;;;18.00;65.40;;;;;;5094544;28;20468;-70
2021/05/20 09:17:44;;;;;;;17.77;16.00;;;18.50;63.50;;;;;;5094691;28;20523;-71
2021/05/20 09:20:11;;;;;;;19.20;17.40;;;19.00;61.60;;;;;;5095340;28;20458;-71
2021/05/20 09:22:38;;;;;;;18.63;16.03;;;19.40;58.60;;;;;;5094627;28;20478;-71
2021/05/20 09:25:07;;;;;;;15.00;13.50;;;19.70;57.10;;;;;;5094562;28;20470;-70
2021/05/20 09:27:35;;;;;;;16.60;14.97;;;19.90;56.80;;;;;;5094468;28;20444;-70
2021/05/20 09:30:18;;;;;;;19.90;18.10;;;20.20;55.90;;;;;;5094199;28;20448;-70
2021/05/20 09:32:49;;;;;;;20.37;18.53;;;20.10;56.90;;;;;;5093844;28;20460;-70
2021/05/20 09:35:17;;;;;;;19.57;17.73;;;19.10;57.00;;;;;;5094464;28;21004;-70
2021/05/20 09:37:49;;;;;;;16.40;14.83;;;18.70;59.40;;;;;;5094243;28;20463;-70
2021/05/20 09:40:18;;;;;;;13.77;12.30;;;18.90;60.40;;;;;;5094466;28;20428;-71
2021/05/20 09:42:46;;;;;;;12.27;11.17;;;19.20;57.60;;;;;;5095080;28;20509;-71
2021/05/20 09:45:15;;;;;;;13.57;12.40;;;19.40;56.10;;;;;;5094209;28;20832;-70
2021/05/20 09:47:42;;;;;;;14.10;12.70;;;19.70;54.80;;;;;;5093986;28;20467;-70
2021/05/20 09:50:12;;;;;;;12.80;11.60;;;19.90;54.20;;;;;;5093885;28;20439;-70
2021/05/20 09:52:39;;;;;;;12.30;11.10;;;20.20;54.40;;;;;;5093691;28;20509;-70
2021/05/20 09:55:18;;;;;;;12.10;11.10;;;20.60;53.70;;;;;;5094097;28;20981;-71
2021/05/20 09:57:45;;;;;;;13.77;12.33;;;21.20;53.40;;;;;;5094184;28;20436;-71
2021/05/20 10:00:13;;;;;;;14.20;12.80;;;21.60;49.80;;;;;;5093788;28;20515;-71
2021/05/20 10:02:41;;;;;;;13.50;12.10;;;22.10;48.80;;;;;;5094100;28;20467;-71
2021/05/20 10:05:24;;;;;;;14.00;12.47;;;22.50;49.40;;;;;;5093903;28;20567;-70
2021/05/20 10:07:51;;;;;;;13.90;12.57;;;22.90;49.90;;;;;;5093794;28;20486;-71
2021/05/20 10:10:18;;;;;;;11.83;10.60;;;22.80;47.80;;;;;;5093835;28;20816;-71
2021/05/20 10:12:45;;;;;;;10.87;9.80;;;22.80;49.00;;;;;;5093800;28;20479;-70
2021/05/20 10:15:17;;;;;;;11.00;10.00;;;23.20;46.70;;;;;;5093559;28;20468;-71
2021/05/20 10:17:43;;;;;;;12.53;11.43;;;23.60;45.20;;;;;;5093727;28;20842;-71
2021/05/20 10:20:12;;;;;;;11.87;10.77;;;23.90;46.10;;;;;;5093715;28;20450;-70
2021/05/20 10:22:40;;;;;;;11.80;10.60;;;24.50;46.20;;;;;;5093637;28;20439;-70
2021/05/20 10:25:08;;;;;;;9.60;8.80;;;24.60;43.70;;;;;;5093442;28;20475;-71
2021/05/20 10:27:36;;;;;;;11.10;9.37;;;24.50;42.70;;;;;;5093664;28;20494;-70
2021/05/20 10:30:06;;;;;;;10.30;9.40;;;24.60;43.60;;;;;;5093440;28;20448;-70
2021/05/20 10:32:34;;;;;;;9.77;8.97;;;24.60;42.40;;;;;;5093546;28;20511;-70
2021/05/20 10:35:09;;;;;;;7.87;7.07;;;25.00;42.60;;;;;;5093281;28;20468;-70
2021/05/20 10:37:38;;;;;;;9.20;8.40;;;25.70;41.40;;;;;;5093608;28;20432;-70
2021/05/20 10:40:27;;;;;;;8.30;7.60;;;26.70;41.00;;;;;;5093102;28;20458;-70
2021/05/20 10:43:05;;;;;;;8.03;7.23;;;27.80;35.70;;;;;;5093508;28;20409;-70
2021/05/20 10:45:32;;;;;;;7.20;6.53;;;28.20;35.00;;;;;;5096843;28;20851;-71
2021/05/20 10:48:18;;;;;;;6.90;6.30;;;28.60;34.20;;;;;;5097166;28;20522;-71
2021/05/20 10:50:57;;;;;;;6.97;6.37;;;28.30;31.60;;;;;;5097485;28;20424;-71
2021/05/20 10:53:45;;;;;;;6.73;6.17;;;28.40;32.30;;;;;;5097170;28;20451;-71
2021/05/20 10:56:49;;;;;;;8.30;5.60;;;28.80;32.30;;;;;;5097450;28;20558;-70
2021/05/20 10:59:42;;;;;;;6.17;5.53;;;29.50;30.70;;;;;;5097284;28;20439;-70
2021/05/20 11:02:16;;;;;;;5.90;5.50;;;29.70;30.80;;;;;;5097230;28;20424;-70
2021/05/20 11:04:44;;;;;;;6.90;6.20;;;29.90;28.30;;;;;;5096843;28;20491;-70
2021/05/20 11:07:12;;;;;;;8.03;7.33;;;30.00;29.20;;;;;;5096754;28;20970;-70
2021/05/20 11:09:46;;;;;;;7.27;6.13;;;29.80;29.00;;;;;;5096823;28;20474;-70
2021/05/20 11:12:14;;;;;;;6.70;6.13;;;29.50;29.30;;;;;;5096714;28;20467;-70
2021/05/20 11:14:45;;;;;;;5.97;5.37;;;29.30;30.90;;;;;;5096603;28;20467;-70
2021/05/20 11:17:37;;;;;;;6.53;6.03;;;29.40;29.00;;;;;;5096545;28;20542;-70
2021/05/20 11:20:40;;;;;;;6.00;5.50;;;28.90;29.20;;;;;;5096865;28;20452;-70
2021/05/20 11:23:21;;;;;;;6.13;5.60;;;28.40;31.00;;;;;;5096946;28;20984;-70
2021/05/20 11:26:10;;;;;;;7.00;6.40;;;28.60;30.00;;;;;;5096398;28;20459;-70
2021/05/20 11:28:48;;;;;;;5.97;5.47;;;28.70;30.90;;;;;;5096802;28;20801;-71
2021/05/20 11:31:18;;;;;;;5.73;5.17;;;28.50;28.90;;;;;;5096305;28;20470;-71
2021/05/20 11:33:53;;;;;;;5.07;4.57;;;28.90;30.30;;;;;;5096205;28;20450;-70
2021/05/20 11:36:20;;;;;;;4.50;4.13;;;29.50;29.60;;;;;;5097135;28;20444;-71
2021/05/20 11:38:55;;;;;;;3.97;3.67;;;29.90;29.60;;;;;;5096186;28;20934;-71
2021/05/20 11:41:22;;;;;;;3.83;3.53;;;30.30;27.30;;;;;;5096435;28;20428;-71
2021/05/20 11:44:01;;;;;;;5.50;2.73;;;29.80;27.90;;;;;;5096075;28;20468;-70
2021/05/20 11:46:28;;;;;;;4.00;3.70;;;29.90;29.50;;;;;;5096409;28;20562;-70
2021/05/20 11:48:56;;;;;;;5.23;4.67;;;30.20;27.60;;;;;;5096362;28;20581;-70
2021/05/20 11:51:44;;;;;;;5.00;4.50;;;29.50;28.10;;;;;;5096221;28;20819;-70
2021/05/20 11:54:14;;;;;;;4.67;4.03;;;28.60;29.80;;;;;;5096171;28;20944;-70
2021/05/20 11:56:48;;;;;;;4.07;3.37;;;28.60;29.90;;;;;;5095528;28;20451;-70
2021/05/20 11:59:15;;;;;;;6.80;4.10;;;28.80;28.90;;;;;;5095857;28;20985;-70
2021/05/20 12:01:44;;;;;;;4.90;4.60;;;29.00;28.40;;;;;;5096103;28;20515;-70
2021/05/20 12:04:12;;;;;;;4.57;4.17;;;28.00;29.00;;;;;;5095691;28;20467;-70
2021/05/20 12:06:38;;;;;;;6.40;3.20;;;27.20;30.30;;;;;;5096642;28;20812;-70
2021/05/20 12:09:13;;;;;;;3.20;2.93;;;27.50;31.10;;;;;;5095662;28;20428;-70
2021/05/20 12:11:42;;;;;;;6.00;3.70;;;28.30;29.40;;;;;;5095543;28;20578;-70
2021/05/20 12:14:29;;;;;;;4.57;3.23;;;28.50;29.70;;;;;;5095432;28;20463;-70
2021/05/20 12:17:03;;;;;;;4.53;3.63;;;29.00;27.80;;;;;;5095604;28;20486;-71
2021/05/20 12:19:32;;;;;;;3.30;2.73;;;29.10;26.80;;;;;;5096443;28;20432;-71
2021/05/20 12:22:00;;;;;;;2.50;2.30;;;29.50;27.50;;;;;;5095694;28;20925;-71
2021/05/20 12:24:33;;;;;;;5.87;2.87;;;29.70;27.30;;;;;;5095724;28;20447;-71
2021/05/20 12:27:21;;;;;;;3.63;3.27;;;29.60;28.40;;;;;;5095313;28;20424;-72
2021/05/20 12:29:49;;;;;;;4.43;3.27;;;29.10;27.80;;;;;;5095301;28;20435;-71
2021/05/20 12:32:38;;;;;;;4.10;3.27;;;28.70;28.10;;;;;;5095065;28;20475;-71
2021/05/20 12:35:22;;;;;;;2.63;2.40;;;27.80;28.70;;;;;;5095430;28;20464;-71
2021/05/20 12:37:57;;;;;;;6.37;2.03;;;27.10;31.80;;;;;;5095404;28;20435;-71
2021/05/20 12:40:26;;;;;;;2.73;1.67;;;27.60;30.00;;;;;;5095374;28;20838;-71